Terri L. Brusco — WDC3034 — position and weather

sailwx.info

Track history (hours):
 
Tides and Currents Weather Stations Pressure Air Temp Water Temp Dewpoint Dewpoint Depression Visibility Wind Speed Wind Dir Waves Ship Positions

Terri L. Brusco

Owner: Brusco Tug & Barge, Inc., Longview, WA. More information available from US FCC via Universal Licensing System and Coast Guard Vessel Documentation Center.

Last reported at 2017-Jan-18 05:33 UTC. Time now 2017-Jan-18 06:02 UTC.
Position N 37°38' W 122°21'.

Length 21 m; draft 4 m.

Type: Tow > 200 m length. MMSI: 367001830.

Date/timePositionNaut miles runAvg speedWind from/ knotsBaromVisibWave heightAir tempDewpointWater temp
2017-Jan-18 05:33N 37°38' W 122°21'0 0.0
2017-Jan-18 04:32N 37°38' W 122°21'0 0.0
2017-Jan-18 03:33N 37°38' W 122°21'0 0.0
2017-Jan-18 02:33N 37°38' W 122°21'0 0.4
2017-Jan-18 01:33N 37°38' W 122°21'9 8.6
2017-Jan-18 00:34N 37°47' W 122°23'9 8.9
2017-Jan-17 23:34N 37°55' W 122°25'11 8.0
2017-Jan-17 22:15N 38°03' W 122°17'4 0.2
2017-Jan-17 01:33N 38°03' W 122°11'10 9.4
2017-Jan-17 00:31N 38°01' W 122°23'9 8.9
2017-Jan-16 23:33N 37°53' W 122°24'7 7.4
2017-Jan-16 22:34N 37°46' W 122°20'4 3.7
2017-Jan-16 21:33N 37°50' W 122°21'3 3.5
2017-Jan-16 20:33N 37°48' W 122°18'3 2.8
2017-Jan-16 19:33N 37°46' W 122°14'0 0.0
2017-Jan-16 18:33N 37°46' W 122°14'0 0.0
2017-Jan-16 17:33N 37°46' W 122°14'0 0.0
2017-Jan-16 16:33N 37°46' W 122°14'0 0.0
2017-Jan-16 15:33N 37°46' W 122°14'0 0.0
2017-Jan-16 14:33N 37°46' W 122°14'0 0.0
2017-Jan-16 13:33N 37°46' W 122°14'3 2.8
2017-Jan-16 12:33N 37°48' W 122°18'9 8.8
2017-Jan-16 11:34N 37°49' W 122°29'10 9.3
2017-Jan-16 10:30N 37°42' W 122°38'38 9.6
2017-Jan-16 06:30N 37°05' W 122°28'10 9.5
2017-Jan-16 05:28N 36°56' W 122°21'9 9.7
2017-Jan-16 04:30N 36°48' W 122°16'9 9.4
2017-Jan-16 03:34N 36°41' W 122°10'9 9.1
2017-Jan-16 02:33N 36°32' W 122°06'8 8.1
2017-Jan-16 01:33N 36°24' W 122°04'8 7.7
2017-Jan-16 00:33N 36°17' W 122°02'7 7.4
2017-Jan-15 23:33N 36°11' W 121°57'7 7.5
2017-Jan-15 22:33N 36°05' W 121°51'8 8.0
2017-Jan-15 21:33N 35°58' W 121°47'8 7.9
2017-Jan-15 20:33N 35°50' W 121°42'193 6.7
2017-Jan-14 15:34N 33°49' W 118°39'1410.4
2017-Jan-14 14:12N 33°42' W 118°24'710.4
2017-Jan-14 13:33N 33°39' W 118°17'1210.6
2017-Jan-14 12:27N 33°35' W 118°04'910.3
2017-Jan-14 11:33N 33°29' W 117°55'1010.2
2017-Jan-14 10:33N 33°22' W 117°47'1010.3
2017-Jan-14 09:33N 33°15' W 117°38'1010.3
2017-Jan-14 08:33N 33°07' W 117°30'1010.1
2017-Jan-14 07:34N 32°57' W 117°27'10 9.8
2017-Jan-14 06:34N 32°48' W 117°23'10 9.9
2017-Jan-14 05:33N 32°39' W 117°18'6 6.4
2017-Jan-14 04:34N 32°43' W 117°12'4 4.0
2017-Jan-14 03:33N 32°41' W 117°08'5 1.1
2017-Jan-13 23:34N 32°43' W 117°13'1 0.6
2017-Jan-13 22:33N 32°43' W 117°14'0 0.0
2017-Jan-13 21:33N 32°43' W 117°14'0 0.0
2017-Jan-13 20:34N 32°43' W 117°14'6 5.8
2017-Jan-13 19:33N 32°40' W 117°08'0 0.4
2017-Jan-13 18:33N 32°40' W 117°07'0 0.0
2017-Jan-13 17:34N 32°40' W 117°07'0 0.0
2017-Jan-13 16:33N 32°40' W 117°07'0 0.0
2017-Jan-13 15:33N 32°40' W 117°07'0 0.0
2017-Jan-13 14:33N 32°40' W 117°07'0 0.0
2017-Jan-13 13:33N 32°40' W 117°07'0 0.0
2017-Jan-13 12:33N 32°40' W 117°07'0 0.0
2017-Jan-13 11:34N 32°40' W 117°07'0 0.0
2017-Jan-13 10:33N 32°40' W 117°07'0 0.0
2017-Jan-13 09:33N 32°40' W 117°07'0 0.0
2017-Jan-13 08:33N 32°40' W 117°07'0 0.0
2017-Jan-13 07:33N 32°40' W 117°07'0 0.0
2017-Jan-13 06:33N 32°40' W 117°07'0 0.0
2017-Jan-13 05:33N 32°40' W 117°07'0 0.0
2017-Jan-13 04:33N 32°40' W 117°07'0 0.0
2017-Jan-13 03:33N 32°40' W 117°07'0 0.0
2017-Jan-13 02:33N 32°40' W 117°07'0 0.0
2017-Jan-13 01:33N 32°40' W 117°07'0 0.0
2017-Jan-13 00:33N 32°40' W 117°07'0 0.0
2017-Jan-12 23:33N 32°40' W 117°07'0 0.0
2017-Jan-12 22:34N 32°40' W 117°07'0 0.1
2017-Jan-12 21:33N 32°40' W 117°07'1 1.1
2017-Jan-12 20:33N 32°41' W 117°08'0 0.0
2017-Jan-12 19:33N 32°41' W 117°08'0 0.0
2017-Jan-12 18:31N 32°41' W 117°08'0 0.0
2017-Jan-12 17:33N 32°41' W 117°08'0 0.0
2017-Jan-12 16:31N 32°41' W 117°08'0 0.1
2017-Jan-12 15:34N 32°41' W 117°08'0 0.1
2017-Jan-12 14:33N 32°41' W 117°08'0 0.1
2017-Jan-12 13:33N 32°41' W 117°08'0 0.0
2017-Jan-12 12:33N 32°41' W 117°08'0 0.0
2017-Jan-12 11:33N 32°41' W 117°08'0 0.0
2017-Jan-12 10:33N 32°41' W 117°08'0 0.0
2017-Jan-12 09:34N 32°41' W 117°08'0 0.0
2017-Jan-12 08:34N 32°41' W 117°08'0 0.0
2017-Jan-12 07:33N 32°41' W 117°08'0 0.0
2017-Jan-12 06:33N 32°41' W 117°08'0 0.0
2017-Jan-12 05:33N 32°41' W 117°08'0 0.0
2017-Jan-12 04:33N 32°41' W 117°08'0 0.0
2017-Jan-12 03:33N 32°41' W 117°08'0 0.0
2017-Jan-12 02:33N 32°41' W 117°08'0 0.0
2017-Jan-12 01:33N 32°41' W 117°08'0 0.0
2017-Jan-12 00:26N 32°41' W 117°08'0 0.1
2017-Jan-11 23:33N 32°41' W 117°08'0 0.0
2017-Jan-11 22:33N 32°41' W 117°08'0 0.0
2017-Jan-11 21:33N 32°41' W 117°08'0 0.1
2017-Jan-11 20:33N 32°41' W 117°08'0 0.0
2017-Jan-11 19:33N 32°41' W 117°08'0 0.1
2017-Jan-11 18:33N 32°41' W 117°08'0 0.0
2017-Jan-11 17:33N 32°41' W 117°08'0 0.1
2017-Jan-11 16:34N 32°41' W 117°08'0 0.0
2017-Jan-11 15:33N 32°41' W 117°08'1 1.2
2017-Jan-11 14:33N 32°40' W 117°07'0 0.0
2017-Jan-11 13:33N 32°40' W 117°07'0 0.0
2017-Jan-11 12:33N 32°40' W 117°07'0 0.0
2017-Jan-11 11:34N 32°40' W 117°07'0 0.0
2017-Jan-11 10:33N 32°40' W 117°07'0 0.0
2017-Jan-11 09:33N 32°40' W 117°07'0 0.0
2017-Jan-11 08:33N 32°40' W 117°07'0 0.0
2017-Jan-11 07:33N 32°40' W 117°07'0 0.0
2017-Jan-11 06:33N 32°40' W 117°07'0 0.0
2017-Jan-11 05:33N 32°40' W 117°07'0 0.0
2017-Jan-11 04:33N 32°40' W 117°07'0 0.0
2017-Jan-11 03:34N 32°40' W 117°07'0 0.0
2017-Jan-11 02:33N 32°40' W 117°07'0 0.0
2017-Jan-11 01:33N 32°40' W 117°07'0 0.0
2017-Jan-11 00:34N 32°40' W 117°07'0 0.1
2017-Jan-10 23:33N 32°40' W 117°07'0 0.0
2017-Jan-10 22:33N 32°40' W 117°07'0 0.0
2017-Jan-10 21:33N 32°40' W 117°07'0 0.1
2017-Jan-10 20:33N 32°40' W 117°07'0 0.0
2017-Jan-10 19:33N 32°40' W 117°07'0 0.0
2017-Jan-10 18:33N 32°40' W 117°07'0 0.0
2017-Jan-10 17:33N 32°40' W 117°07'0 0.1
2017-Jan-10 16:34N 32°40' W 117°07'0 0.0
2017-Jan-10 15:33N 32°40' W 117°07'0 0.1
2017-Jan-10 14:33N 32°40' W 117°07'0 0.0
2017-Jan-10 13:33N 32°40' W 117°07'0 0.0
2017-Jan-10 12:33N 32°40' W 117°07'0 0.0
2017-Jan-10 11:34N 32°40' W 117°07'0 0.0
2017-Jan-10 10:34N 32°40' W 117°07'0 0.0
2017-Jan-10 09:33N 32°40' W 117°07'0 0.0
2017-Jan-10 08:33N 32°40' W 117°07'0 0.0
2017-Jan-10 07:33N 32°40' W 117°07'0 0.0
2017-Jan-10 06:33N 32°40' W 117°07'0 0.0
2017-Jan-10 05:34N 32°40' W 117°07'0 0.0
2017-Jan-10 04:34N 32°40' W 117°07'0 0.0
2017-Jan-10 03:34N 32°40' W 117°07'0 0.0
2017-Jan-10 02:33N 32°40' W 117°07'0 0.0
2017-Jan-10 01:33N 32°40' W 117°07'0 0.1
2017-Jan-10 00:33N 32°40' W 117°07'0 0.0
2017-Jan-09 23:33N 32°40' W 117°07'0 0.0
2017-Jan-09 22:33N 32°40' W 117°07'0 0.0
2017-Jan-09 21:33N 32°40' W 117°07'0 0.0
2017-Jan-09 20:32N 32°40' W 117°07'0 0.0
2017-Jan-09 19:32N 32°40' W 117°07'0 0.0
2017-Jan-09 18:33N 32°40' W 117°07'0 0.0
2017-Jan-09 17:33N 32°40' W 117°07'0 0.0
2017-Jan-09 16:34N 32°40' W 117°07'0 0.0
2017-Jan-09 15:34N 32°40' W 117°07'1 1.1
2017-Jan-09 14:33N 32°41' W 117°08'0 0.0
2017-Jan-09 13:32N 32°41' W 117°08'0 0.0
2017-Jan-09 12:24N 32°41' W 117°08'0 0.0
2017-Jan-09 11:33N 32°41' W 117°08'0 0.0
2017-Jan-09 10:32N 32°41' W 117°08'0 0.0
2017-Jan-09 09:18N 32°41' W 117°08'0 0.0
2017-Jan-09 08:31N 32°41' W 117°08'0 0.0
2017-Jan-09 07:25N 32°41' W 117°08'0 0.0
2017-Jan-09 06:31N 32°41' W 117°08'0 0.0
2017-Jan-09 05:26N 32°41' W 117°08'0 0.0
2017-Jan-09 04:28N 32°41' W 117°08'0 0.0
2017-Jan-09 02:31N 32°41' W 117°08'0 0.0
2017-Jan-09 01:23N 32°41' W 117°08'0 0.0
2017-Jan-09 00:31N 32°41' W 117°08'0 0.0
2017-Jan-08 23:33N 32°41' W 117°08'0 0.0
2017-Jan-08 22:32N 32°41' W 117°08'0 0.1
2017-Jan-08 21:28N 32°41' W 117°08'0 0.1
2017-Jan-08 20:29N 32°41' W 117°08'0 0.0
2017-Jan-08 19:31N 32°41' W 117°08'0 0.0
2017-Jan-08 18:33N 32°41' W 117°08'0 0.0
2017-Jan-08 17:33N 32°41' W 117°08'0 0.1
2017-Jan-08 16:32N 32°41' W 117°08'0 0.0
2017-Jan-08 15:27N 32°41' W 117°08'0 0.1
2017-Jan-08 14:31N 32°41' W 117°08'0 0.0
2017-Jan-08 13:31N 32°41' W 117°08'0 0.0
2017-Jan-08 12:31N 32°41' W 117°08'0 0.0
2017-Jan-08 11:31N 32°41' W 117°08'0 0.0
2017-Jan-08 10:32N 32°41' W 117°08'0 0.0
2017-Jan-08 09:33N 32°41' W 117°08'0 0.0
2017-Jan-08 08:33N 32°41' W 117°08'  
Track history (hours):
 
Tides and Currents Weather Stations Pressure Air Temp Water Temp Dewpoint Dewpoint Depression Visibility Wind Speed Wind Dir Waves Ship Positions

Terri L. Brusco

Owner: Brusco Tug & Barge, Inc., Longview, WA. More information available from US FCC via Universal Licensing System and Coast Guard Vessel Documentation Center.

Last reported at 2017-Jan-18 05:33 UTC. Time now 2017-Jan-18 06:02 UTC.
Position N 37°38' W 122°21'.

Length 21 m; draft 4 m.

Type: Tow > 200 m length. MMSI: 367001830.

Date/timePositionNaut miles runAvg speedWind from/ knotsBaromVisibWave heightAir tempDewpointWater temp
2017-Jan-18 05:33N 37°38' W 122°21'0 0.0
2017-Jan-18 04:32N 37°38' W 122°21'0 0.0
2017-Jan-18 03:33N 37°38' W 122°21'0 0.0
2017-Jan-18 02:33N 37°38' W 122°21'0 0.4
2017-Jan-18 01:33N 37°38' W 122°21'9 8.6
2017-Jan-18 00:34N 37°47' W 122°23'9 8.9
2017-Jan-17 23:34N 37°55' W 122°25'11 8.0
2017-Jan-17 22:15N 38°03' W 122°17'4 0.2
2017-Jan-17 01:33N 38°03' W 122°11'10 9.4
2017-Jan-17 00:31N 38°01' W 122°23'9 8.9
2017-Jan-16 23:33N 37°53' W 122°24'7 7.4
2017-Jan-16 22:34N 37°46' W 122°20'4 3.7
2017-Jan-16 21:33N 37°50' W 122°21'3 3.5
2017-Jan-16 20:33N 37°48' W 122°18'3 2.8
2017-Jan-16 19:33N 37°46' W 122°14'0 0.0
2017-Jan-16 18:33N 37°46' W 122°14'0 0.0
2017-Jan-16 17:33N 37°46' W 122°14'0 0.0
2017-Jan-16 16:33N 37°46' W 122°14'0 0.0
2017-Jan-16 15:33N 37°46' W 122°14'0 0.0
2017-Jan-16 14:33N 37°46' W 122°14'0 0.0
2017-Jan-16 13:33N 37°46' W 122°14'3 2.8
2017-Jan-16 12:33N 37°48' W 122°18'9 8.8
2017-Jan-16 11:34N 37°49' W 122°29'10 9.3
2017-Jan-16 10:30N 37°42' W 122°38'38 9.6
2017-Jan-16 06:30N 37°05' W 122°28'10 9.5
2017-Jan-16 05:28N 36°56' W 122°21'9 9.7
2017-Jan-16 04:30N 36°48' W 122°16'9 9.4
2017-Jan-16 03:34N 36°41' W 122°10'9 9.1
2017-Jan-16 02:33N 36°32' W 122°06'8 8.1
2017-Jan-16 01:33N 36°24' W 122°04'8 7.7
2017-Jan-16 00:33N 36°17' W 122°02'7 7.4
2017-Jan-15 23:33N 36°11' W 121°57'7 7.5
2017-Jan-15 22:33N 36°05' W 121°51'8 8.0
2017-Jan-15 21:33N 35°58' W 121°47'8 7.9
2017-Jan-15 20:33N 35°50' W 121°42'193 6.7
2017-Jan-14 15:34N 33°49' W 118°39'1410.4
2017-Jan-14 14:12N 33°42' W 118°24'710.4
2017-Jan-14 13:33N 33°39' W 118°17'1210.6
2017-Jan-14 12:27N 33°35' W 118°04'910.3
2017-Jan-14 11:33N 33°29' W 117°55'1010.2
2017-Jan-14 10:33N 33°22' W 117°47'1010.3
2017-Jan-14 09:33N 33°15' W 117°38'1010.3
2017-Jan-14 08:33N 33°07' W 117°30'1010.1
2017-Jan-14 07:34N 32°57' W 117°27'10 9.8
2017-Jan-14 06:34N 32°48' W 117°23'10 9.9
2017-Jan-14 05:33N 32°39' W 117°18'6 6.4
2017-Jan-14 04:34N 32°43' W 117°12'4 4.0
2017-Jan-14 03:33N 32°41' W 117°08'5 1.1
2017-Jan-13 23:34N 32°43' W 117°13'1 0.6
2017-Jan-13 22:33N 32°43' W 117°14'0 0.0
2017-Jan-13 21:33N 32°43' W 117°14'0 0.0
2017-Jan-13 20:34N 32°43' W 117°14'6 5.8
2017-Jan-13 19:33N 32°40' W 117°08'0 0.4
2017-Jan-13 18:33N 32°40' W 117°07'0 0.0
2017-Jan-13 17:34N 32°40' W 117°07'0 0.0
2017-Jan-13 16:33N 32°40' W 117°07'0 0.0
2017-Jan-13 15:33N 32°40' W 117°07'0 0.0
2017-Jan-13 14:33N 32°40' W 117°07'0 0.0
2017-Jan-13 13:33N 32°40' W 117°07'0 0.0
2017-Jan-13 12:33N 32°40' W 117°07'0 0.0
2017-Jan-13 11:34N 32°40' W 117°07'0 0.0
2017-Jan-13 10:33N 32°40' W 117°07'0 0.0
2017-Jan-13 09:33N 32°40' W 117°07'0 0.0
2017-Jan-13 08:33N 32°40' W 117°07'0 0.0
2017-Jan-13 07:33N 32°40' W 117°07'0 0.0
2017-Jan-13 06:33N 32°40' W 117°07'0 0.0
2017-Jan-13 05:33N 32°40' W 117°07'0 0.0
2017-Jan-13 04:33N 32°40' W 117°07'0 0.0
2017-Jan-13 03:33N 32°40' W 117°07'0 0.0
2017-Jan-13 02:33N 32°40' W 117°07'0 0.0
2017-Jan-13 01:33N 32°40' W 117°07'0 0.0
2017-Jan-13 00:33N 32°40' W 117°07'0 0.0
2017-Jan-12 23:33N 32°40' W 117°07'0 0.0
2017-Jan-12 22:34N 32°40' W 117°07'0 0.1
2017-Jan-12 21:33N 32°40' W 117°07'1 1.1
2017-Jan-12 20:33N 32°41' W 117°08'0 0.0
2017-Jan-12 19:33N 32°41' W 117°08'0 0.0
2017-Jan-12 18:31N 32°41' W 117°08'0 0.0
2017-Jan-12 17:33N 32°41' W 117°08'0 0.0
2017-Jan-12 16:31N 32°41' W 117°08'0 0.1
2017-Jan-12 15:34N 32°41' W 117°08'0 0.1
2017-Jan-12 14:33N 32°41' W 117°08'0 0.1
2017-Jan-12 13:33N 32°41' W 117°08'0 0.0
2017-Jan-12 12:33N 32°41' W 117°08'0 0.0
2017-Jan-12 11:33N 32°41' W 117°08'0 0.0
2017-Jan-12 10:33N 32°41' W 117°08'0 0.0
2017-Jan-12 09:34N 32°41' W 117°08'0 0.0
2017-Jan-12 08:34N 32°41' W 117°08'0 0.0
2017-Jan-12 07:33N 32°41' W 117°08'0 0.0
2017-Jan-12 06:33N 32°41' W 117°08'0 0.0
2017-Jan-12 05:33N 32°41' W 117°08'0 0.0
2017-Jan-12 04:33N 32°41' W 117°08'0 0.0
2017-Jan-12 03:33N 32°41' W 117°08'0 0.0
2017-Jan-12 02:33N 32°41' W 117°08'0 0.0
2017-Jan-12 01:33N 32°41' W 117°08'0 0.0
2017-Jan-12 00:26N 32°41' W 117°08'0 0.1
2017-Jan-11 23:33N 32°41' W 117°08'0 0.0
2017-Jan-11 22:33N 32°41' W 117°08'0 0.0
2017-Jan-11 21:33N 32°41' W 117°08'0 0.1
2017-Jan-11 20:33N 32°41' W 117°08'0 0.0
2017-Jan-11 19:33N 32°41' W 117°08'0 0.1
2017-Jan-11 18:33N 32°41' W 117°08'0 0.0
2017-Jan-11 17:33N 32°41' W 117°08'0 0.1
2017-Jan-11 16:34N 32°41' W 117°08'0 0.0
2017-Jan-11 15:33N 32°41' W 117°08'1 1.2
2017-Jan-11 14:33N 32°40' W 117°07'0 0.0
2017-Jan-11 13:33N 32°40' W 117°07'0 0.0
2017-Jan-11 12:33N 32°40' W 117°07'0 0.0
2017-Jan-11 11:34N 32°40' W 117°07'0 0.0
2017-Jan-11 10:33N 32°40' W 117°07'0 0.0
2017-Jan-11 09:33N 32°40' W 117°07'0 0.0
2017-Jan-11 08:33N 32°40' W 117°07'0 0.0
2017-Jan-11 07:33N 32°40' W 117°07'0 0.0
2017-Jan-11 06:33N 32°40' W 117°07'0 0.0
2017-Jan-11 05:33N 32°40' W 117°07'0 0.0
2017-Jan-11 04:33N 32°40' W 117°07'0 0.0
2017-Jan-11 03:34N 32°40' W 117°07'0 0.0
2017-Jan-11 02:33N 32°40' W 117°07'0 0.0
2017-Jan-11 01:33N 32°40' W 117°07'0 0.0
2017-Jan-11 00:34N 32°40' W 117°07'0 0.1
2017-Jan-10 23:33N 32°40' W 117°07'0 0.0
2017-Jan-10 22:33N 32°40' W 117°07'0 0.0
2017-Jan-10 21:33N 32°40' W 117°07'0 0.1
2017-Jan-10 20:33N 32°40' W 117°07'0 0.0
2017-Jan-10 19:33N 32°40' W 117°07'0 0.0
2017-Jan-10 18:33N 32°40' W 117°07'0 0.0
2017-Jan-10 17:33N 32°40' W 117°07'0 0.1
2017-Jan-10 16:34N 32°40' W 117°07'0 0.0
2017-Jan-10 15:33N 32°40' W 117°07'0 0.1
2017-Jan-10 14:33N 32°40' W 117°07'0 0.0
2017-Jan-10 13:33N 32°40' W 117°07'0 0.0
2017-Jan-10 12:33N 32°40' W 117°07'0 0.0
2017-Jan-10 11:34N 32°40' W 117°07'0 0.0
2017-Jan-10 10:34N 32°40' W 117°07'0 0.0
2017-Jan-10 09:33N 32°40' W 117°07'0 0.0
2017-Jan-10 08:33N 32°40' W 117°07'0 0.0
2017-Jan-10 07:33N 32°40' W 117°07'0 0.0
2017-Jan-10 06:33N 32°40' W 117°07'0 0.0
2017-Jan-10 05:34N 32°40' W 117°07'0 0.0
2017-Jan-10 04:34N 32°40' W 117°07'0 0.0
2017-Jan-10 03:34N 32°40' W 117°07'0 0.0
2017-Jan-10 02:33N 32°40' W 117°07'0 0.0
2017-Jan-10 01:33N 32°40' W 117°07'0 0.1
2017-Jan-10 00:33N 32°40' W 117°07'0 0.0
2017-Jan-09 23:33N 32°40' W 117°07'0 0.0
2017-Jan-09 22:33N 32°40' W 117°07'0 0.0
2017-Jan-09 21:33N 32°40' W 117°07'0 0.0
2017-Jan-09 20:32N 32°40' W 117°07'0 0.0
2017-Jan-09 19:32N 32°40' W 117°07'0 0.0
2017-Jan-09 18:33N 32°40' W 117°07'0 0.0
2017-Jan-09 17:33N 32°40' W 117°07'0 0.0
2017-Jan-09 16:34N 32°40' W 117°07'0 0.0
2017-Jan-09 15:34N 32°40' W 117°07'1 1.1
2017-Jan-09 14:33N 32°41' W 117°08'0 0.0
2017-Jan-09 13:32N 32°41' W 117°08'0 0.0
2017-Jan-09 12:24N 32°41' W 117°08'0 0.0
2017-Jan-09 11:33N 32°41' W 117°08'0 0.0
2017-Jan-09 10:32N 32°41' W 117°08'0 0.0
2017-Jan-09 09:18N 32°41' W 117°08'0 0.0
2017-Jan-09 08:31N 32°41' W 117°08'0 0.0
2017-Jan-09 07:25N 32°41' W 117°08'0 0.0
2017-Jan-09 06:31N 32°41' W 117°08'0 0.0
2017-Jan-09 05:26N 32°41' W 117°08'0 0.0
2017-Jan-09 04:28N 32°41' W 117°08'0 0.0
2017-Jan-09 02:31N 32°41' W 117°08'0 0.0
2017-Jan-09 01:23N 32°41' W 117°08'0 0.0
2017-Jan-09 00:31N 32°41' W 117°08'0 0.0
2017-Jan-08 23:33N 32°41' W 117°08'0 0.0
2017-Jan-08 22:32N 32°41' W 117°08'0 0.1
2017-Jan-08 21:28N 32°41' W 117°08'0 0.1
2017-Jan-08 20:29N 32°41' W 117°08'0 0.0
2017-Jan-08 19:31N 32°41' W 117°08'0 0.0
2017-Jan-08 18:33N 32°41' W 117°08'0 0.0
2017-Jan-08 17:33N 32°41' W 117°08'0 0.1
2017-Jan-08 16:32N 32°41' W 117°08'0 0.0
2017-Jan-08 15:27N 32°41' W 117°08'0 0.1
2017-Jan-08 14:31N 32°41' W 117°08'0 0.0
2017-Jan-08 13:31N 32°41' W 117°08'0 0.0
2017-Jan-08 12:31N 32°41' W 117°08'0 0.0
2017-Jan-08 11:31N 32°41' W 117°08'0 0.0
2017-Jan-08 10:32N 32°41' W 117°08'0 0.0
2017-Jan-08 09:33N 32°41' W 117°08'0 0.0
2017-Jan-08 08:33N 32°41' W 117°08'  

Dump ship's entire track history